sensor_id;sensor_type;location;lat;lon;timestamp;P1;durP1;ratioP1;P2;durP2;ratioP2
2564;SDS011;1292;48.020;7.822;2023-10-19T05:45:27;9.33;;;7.70;;
2564;SDS011;1292;48.020;7.822;2023-10-19T05:47:55;8.03;;;6.80;;
2564;SDS011;1292;48.020;7.822;2023-10-19T05:50:22;7.90;;;7.13;;
2564;SDS011;1292;48.020;7.822;2023-10-19T05:52:49;9.95;;;9.05;;
2564;SDS011;1292;48.020;7.822;2023-10-19T05:55:17;8.87;;;8.07;;
2564;SDS011;1292;48.020;7.822;2023-10-19T05:57:46;9.47;;;8.57;;
2564;SDS011;1292;48.020;7.822;2023-10-19T06:00:14;12.20;;;8.50;;
2564;SDS011;1292;48.020;7.822;2023-10-19T06:02:45;10.55;;;8.10;;
2564;SDS011;1292;48.020;7.822;2023-10-19T06:05:14;7.77;;;7.07;;
2564;SDS011;1292;48.020;7.822;2023-10-19T06:07:42;10.90;;;7.60;;
2564;SDS011;1292;48.020;7.822;2023-10-19T06:10:13;9.37;;;8.57;;
2564;SDS011;1292;48.020;7.822;2023-10-19T06:12:43;9.13;;;8.17;;
2564;SDS011;1292;48.020;7.822;2023-10-19T06:15:11;7.97;;;7.27;;
2564;SDS011;1292;48.020;7.822;2023-10-19T06:17:38;6.97;;;6.32;;
2564;SDS011;1292;48.020;7.822;2023-10-19T06:20:08;7.33;;;6.63;;
2564;SDS011;1292;48.020;7.822;2023-10-19T06:22:45;8.73;;;7.83;;
2564;SDS011;1292;48.020;7.822;2023-10-19T06:25:15;9.80;;;8.40;;
2564;SDS011;1292;48.020;7.822;2023-10-19T06:27:43;10.00;;;7.83;;
2564;SDS011;1292;48.020;7.822;2023-10-19T06:30:10;14.73;;;9.37;;
2564;SDS011;1292;48.020;7.822;2023-10-19T06:32:42;8.87;;;8.00;;
2564;SDS011;1292;48.020;7.822;2023-10-19T06:35:11;8.50;;;7.77;;
2564;SDS011;1292;48.020;7.822;2023-10-19T06:37:38;9.43;;;7.63;;
2564;SDS011;1292;48.020;7.822;2023-10-19T06:40:06;12.80;;;9.50;;
2564;SDS011;1292;48.020;7.822;2023-10-19T06:42:33;11.63;;;10.40;;
2564;SDS011;1292;48.020;7.822;2023-10-19T06:45:00;11.67;;;9.17;;
2564;SDS011;1292;48.020;7.822;2023-10-19T06:47:27;15.55;;;13.38;;
2564;SDS011;1292;48.020;7.822;2023-10-19T06:49:55;13.27;;;10.70;;
2564;SDS011;1292;48.020;7.822;2023-10-19T06:52:23;32.80;;;23.83;;
2564;SDS011;1292;48.020;7.822;2023-10-19T06:54:50;25.63;;;19.27;;
2564;SDS011;1292;48.020;7.822;2023-10-19T06:57:17;14.40;;;12.10;;
2564;SDS011;1292;48.020;7.822;2023-10-19T06:59:44;11.73;;;10.30;;
2564;SDS011;1292;48.020;7.822;2023-10-19T07:02:11;12.10;;;9.45;;
2564;SDS011;1292;48.020;7.822;2023-10-19T07:04:38;15.43;;;11.93;;
2564;SDS011;1292;48.020;7.822;2023-10-19T07:07:04;15.23;;;11.70;;
2564;SDS011;1292;48.020;7.822;2023-10-19T07:09:33;12.50;;;10.80;;
2564;SDS011;1292;48.020;7.822;2023-10-19T07:11:59;11.20;;;9.93;;
2564;SDS011;1292;48.020;7.822;2023-10-19T07:14:26;11.07;;;10.00;;
2564;SDS011;1292;48.020;7.822;2023-10-19T07:16:53;10.70;;;9.70;;
2564;SDS011;1292;48.020;7.822;2023-10-19T07:19:20;13.10;;;9.80;;
2564;SDS011;1292;48.020;7.822;2023-10-19T07:21:47;10.30;;;9.20;;
2564;SDS011;1292;48.020;7.822;2023-10-19T07:24:18;11.10;;;10.10;;
2564;SDS011;1292;48.020;7.822;2023-10-19T07:26:50;11.70;;;10.00;;
2564;SDS011;1292;48.020;7.822;2023-10-19T07:29:28;11.25;;;9.40;;
2564;SDS011;1292;48.020;7.822;2023-10-19T07:31:56;13.03;;;9.70;;
2564;SDS011;1292;48.020;7.822;2023-10-19T07:34:23;10.00;;;9.10;;
2564;SDS011;1292;48.020;7.822;2023-10-19T07:36:53;10.00;;;8.43;;
2564;SDS011;1292;48.020;7.822;2023-10-19T07:39:20;11.30;;;9.90;;
2564;SDS011;1292;48.020;7.822;2023-10-19T07:41:49;10.30;;;9.10;;
2564;SDS011;1292;48.020;7.822;2023-10-19T07:44:16;9.90;;;8.90;;
2564;SDS011;1292;48.020;7.822;2023-10-19T07:46:43;12.03;;;9.27;;
2564;SDS011;1292;48.020;7.822;2023-10-19T07:49:10;11.02;;;9.70;;
2564;SDS011;1292;48.020;7.822;2023-10-19T07:51:40;18.57;;;15.30;;
2564;SDS011;1292;48.020;7.822;2023-10-19T07:54:10;14.90;;;13.33;;
2564;SDS011;1292;48.020;7.822;2023-10-19T07:56:37;13.20;;;11.80;;
2564;SDS011;1292;48.020;7.822;2023-10-19T07:59:06;16.58;;;12.23;;
2564;SDS011;1292;48.020;7.822;2023-10-19T08:01:33;12.50;;;11.03;;
2564;SDS011;1292;48.020;7.822;2023-10-19T08:03:59;16.80;;;9.13;;
2564;SDS011;1292;48.020;7.822;2023-10-19T08:06:26;12.32;;;10.05;;
2564;SDS011;1292;48.020;7.822;2023-10-19T08:08:54;9.87;;;8.87;;
2564;SDS011;1292;48.020;7.822;2023-10-19T08:11:21;11.87;;;8.93;;
2564;SDS011;1292;48.020;7.822;2023-10-19T08:13:48;12.35;;;10.70;;
2564;SDS011;1292;48.020;7.822;2023-10-19T08:16:16;13.13;;;9.40;;
2564;SDS011;1292;48.020;7.822;2023-10-19T08:18:43;12.40;;;9.43;;
2564;SDS011;1292;48.020;7.822;2023-10-19T08:21:10;12.70;;;9.68;;
2564;SDS011;1292;48.020;7.822;2023-10-19T08:23:37;11.53;;;8.60;;
2564;SDS011;1292;48.020;7.822;2023-10-19T08:26:05;10.60;;;9.13;;
2564;SDS011;1292;48.020;7.822;2023-10-19T08:28:32;10.47;;;9.13;;
2564;SDS011;1292;48.020;7.822;2023-10-19T08:30:59;12.27;;;9.13;;
2564;SDS011;1292;48.020;7.822;2023-10-19T08:33:27;10.90;;;9.70;;
2564;SDS011;1292;48.020;7.822;2023-10-19T08:35:55;10.60;;;9.50;;
2564;SDS011;1292;48.020;7.822;2023-10-19T08:38:23;11.60;;;10.38;;
2564;SDS011;1292;48.020;7.822;2023-10-19T08:40:50;10.00;;;8.68;;
2564;SDS011;1292;48.020;7.822;2023-10-19T08:43:17;11.30;;;10.20;;
2564;SDS011;1292;48.020;7.822;2023-10-19T08:45:44;10.70;;;9.60;;
2564;SDS011;1292;48.020;7.822;2023-10-19T08:48:11;10.20;;;8.37;;
2564;SDS011;1292;48.020;7.822;2023-10-19T08:50:40;15.67;;;13.90;;
2564;SDS011;1292;48.020;7.822;2023-10-19T08:53:08;30.00;;;22.70;;
2564;SDS011;1292;48.020;7.822;2023-10-19T08:55:38;29.17;;;21.90;;
2564;SDS011;1292;48.020;7.822;2023-10-19T08:58:05;27.08;;;21.67;;
2564;SDS011;1292;48.020;7.822;2023-10-19T09:00:42;26.50;;;18.07;;
2564;SDS011;1292;48.020;7.822;2023-10-19T09:03:12;17.37;;;15.50;;
2564;SDS011;1292;48.020;7.822;2023-10-19T09:05:42;18.58;;;15.15;;
2564;SDS011;1292;48.020;7.822;2023-10-19T09:08:13;12.97;;;11.63;;
2564;SDS011;1292;48.020;7.822;2023-10-19T09:10:42;12.87;;;10.90;;
2564;SDS011;1292;48.020;7.822;2023-10-19T09:13:11;14.07;;;11.50;;
2564;SDS011;1292;48.020;7.822;2023-10-19T09:15:40;12.17;;;10.97;;
2564;SDS011;1292;48.020;7.822;2023-10-19T09:18:14;13.48;;;12.15;;
2564;SDS011;1292;48.020;7.822;2023-10-19T09:20:43;11.53;;;10.20;;
2564;SDS011;1292;48.020;7.822;2023-10-19T09:23:21;11.20;;;10.10;;
2564;SDS011;1292;48.020;7.822;2023-10-19T09:25:50;12.60;;;9.60;;
2564;SDS011;1292;48.020;7.822;2023-10-19T09:28:18;14.70;;;12.00;;
2564;SDS011;1292;48.020;7.822;2023-10-19T09:30:44;11.97;;;10.80;;
2564;SDS011;1292;48.020;7.822;2023-10-19T09:33:13;10.63;;;8.03;;
2564;SDS011;1292;48.020;7.822;2023-10-19T09:35:43;10.50;;;9.43;;
2564;SDS011;1292;48.020;7.822;2023-10-19T09:38:13;10.53;;;9.53;;
2564;SDS011;1292;48.020;7.822;2023-10-19T09:40:40;10.67;;;9.67;;
2564;SDS011;1292;48.020;7.822;2023-10-19T09:43:08;12.40;;;9.93;;
2564;SDS011;1292;48.020;7.822;2023-10-19T09:45:41;11.87;;;10.70;;
2564;SDS011;1292;48.020;7.822;2023-10-19T09:48:15;10.53;;;9.13;;
2564;SDS011;1292;48.020;7.822;2023-10-19T09:50:45;12.20;;;10.60;;
2564;SDS011;1292;48.020;7.822;2023-10-19T09:53:19;13.30;;;9.33;;
2564;SDS011;1292;48.020;7.822;2023-10-19T09:55:49;14.43;;;10.70;;
2564;SDS011;1292;48.020;7.822;2023-10-19T09:58:18;15.00;;;10.90;;
2564;SDS011;1292;48.020;7.822;2023-10-19T10:00:49;13.73;;;9.40;;
2564;SDS011;1292;48.020;7.822;2023-10-19T10:06:10;13.17;;;11.37;;
2564;SDS011;1292;48.020;7.822;2023-10-19T10:08:39;13.30;;;11.13;;
2564;SDS011;1292;48.020;7.822;2023-10-19T10:11:15;13.80;;;9.00;;
2564;SDS011;1292;48.020;7.822;2023-10-19T10:13:44;15.05;;;10.27;;
2564;SDS011;1292;48.020;7.822;2023-10-19T10:16:12;10.50;;;9.53;;
2564;SDS011;1292;48.020;7.822;2023-10-19T10:18:41;13.13;;;10.50;;
2564;SDS011;1292;48.020;7.822;2023-10-19T10:21:12;11.20;;;9.03;;
2564;SDS011;1292;48.020;7.822;2023-10-19T10:23:42;13.10;;;10.07;;
2564;SDS011;1292;48.020;7.822;2023-10-19T10:26:10;11.23;;;9.27;;
2564;SDS011;1292;48.020;7.822;2023-10-19T10:28:38;9.40;;;7.60;;
2564;SDS011;1292;48.020;7.822;2023-10-19T10:31:07;10.18;;;7.45;;
2564;SDS011;1292;48.020;7.822;2023-10-19T10:33:42;4.55;;;3.85;;
2564;SDS011;1292;48.020;7.822;2023-10-19T10:36:12;3.13;;;2.80;;
2564;SDS011;1292;48.020;7.822;2023-10-19T10:38:40;3.40;;;3.00;;
2564;SDS011;1292;48.020;7.822;2023-10-19T10:41:07;3.83;;;3.20;;
2564;SDS011;1292;48.020;7.822;2023-10-19T10:43:52;3.30;;;2.88;;
2564;SDS011;1292;48.020;7.822;2023-10-19T10:46:23;2.77;;;2.57;;
2564;SDS011;1292;48.020;7.822;2023-10-19T10:48:52;2.10;;;1.90;;
2564;SDS011;1292;48.020;7.822;2023-10-19T10:51:21;2.33;;;2.10;;
2564;SDS011;1292;48.020;7.822;2023-10-19T10:53:49;3.23;;;2.30;;
2564;SDS011;1292;48.020;7.822;2023-10-19T10:56:17;2.93;;;1.80;;
2564;SDS011;1292;48.020;7.822;2023-10-19T10:58:44;1.60;;;1.50;;
2564;SDS011;1292;48.020;7.822;2023-10-19T11:01:12;2.20;;;1.63;;
2564;SDS011;1292;48.020;7.822;2023-10-19T11:03:39;2.33;;;2.00;;
2564;SDS011;1292;48.020;7.822;2023-10-19T11:06:06;2.00;;;1.90;;
2564;SDS011;1292;48.020;7.822;2023-10-19T11:08:35;6.80;;;2.30;;
2564;SDS011;1292;48.020;7.822;2023-10-19T11:11:03;1.90;;;1.80;;
2564;SDS011;1292;48.020;7.822;2023-10-19T11:13:31;2.95;;;2.13;;
2564;SDS011;1292;48.020;7.822;2023-10-19T11:16:02;2.70;;;2.37;;
2564;SDS011;1292;48.020;7.822;2023-10-19T11:18:31;3.30;;;2.93;;
2564;SDS011;1292;48.020;7.822;2023-10-19T11:21:01;3.40;;;2.43;;
2564;SDS011;1292;48.020;7.822;2023-10-19T11:23:40;3.10;;;2.90;;
2564;SDS011;1292;48.020;7.822;2023-10-19T11:26:08;4.67;;;2.57;;
2564;SDS011;1292;48.020;7.822;2023-10-19T11:28:36;4.00;;;2.30;;
2564;SDS011;1292;48.020;7.822;2023-10-19T11:31:12;2.50;;;2.30;;
2564;SDS011;1292;48.020;7.822;2023-10-19T11:33:40;2.87;;;2.67;;
2564;SDS011;1292;48.020;7.822;2023-10-19T11:36:07;3.00;;;2.57;;
2564;SDS011;1292;48.020;7.822;2023-10-19T11:38:37;2.75;;;2.30;;
2564;SDS011;1292;48.020;7.822;2023-10-19T11:41:09;2.63;;;2.10;;
2564;SDS011;1292;48.020;7.822;2023-10-19T11:43:37;2.67;;;2.47;;
2564;SDS011;1292;48.020;7.822;2023-10-19T11:46:05;2.73;;;2.23;;
2564;SDS011;1292;48.020;7.822;2023-10-19T11:48:32;1.95;;;1.85;;
2564;SDS011;1292;48.020;7.822;2023-10-19T11:51:00;2.85;;;2.13;;
2564;SDS011;1292;48.020;7.822;2023-10-19T11:53:30;4.07;;;2.50;;
2564;SDS011;1292;48.020;7.822;2023-10-19T11:56:01;3.60;;;3.30;;
2564;SDS011;1292;48.020;7.822;2023-10-19T11:58:29;3.00;;;2.70;;
2564;SDS011;1292;48.020;7.822;2023-10-19T12:00:57;4.97;;;4.57;;
2564;SDS011;1292;48.020;7.822;2023-10-19T12:03:24;5.47;;;4.90;;
2564;SDS011;1292;48.020;7.822;2023-10-19T12:05:51;6.30;;;4.20;;
2564;SDS011;1292;48.020;7.822;2023-10-19T12:08:20;4.33;;;3.50;;
2564;SDS011;1292;48.020;7.822;2023-10-19T12:10:47;7.00;;;3.50;;
2564;SDS011;1292;48.020;7.822;2023-10-19T12:13:15;3.60;;;3.30;;
2564;SDS011;1292;48.020;7.822;2023-10-19T12:15:42;7.20;;;3.43;;
2564;SDS011;1292;48.020;7.822;2023-10-19T12:18:16;3.27;;;2.80;;
2564;SDS011;1292;48.020;7.822;2023-10-19T12:20:44;4.00;;;3.70;;
2564;SDS011;1292;48.020;7.822;2023-10-19T12:23:11;3.30;;;3.00;;
2564;SDS011;1292;48.020;7.822;2023-10-19T12:25:38;3.67;;;3.20;;
2564;SDS011;1292;48.020;7.822;2023-10-19T12:28:07;5.53;;;4.27;;
2564;SDS011;1292;48.020;7.822;2023-10-19T12:30:39;7.67;;;4.97;;
2564;SDS011;1292;48.020;7.822;2023-10-19T12:33:07;3.60;;;3.30;;
2564;SDS011;1292;48.020;7.822;2023-10-19T12:35:36;5.13;;;3.00;;
2564;SDS011;1292;48.020;7.822;2023-10-19T12:38:16;1.90;;;1.80;;
2564;SDS011;1292;48.020;7.822;2023-10-19T12:40:45;1.92;;;1.52;;
2564;SDS011;1292;48.020;7.822;2023-10-19T12:43:12;2.37;;;1.50;;
2564;SDS011;1292;48.020;7.822;2023-10-19T12:45:41;1.50;;;1.40;;
2564;SDS011;1292;48.020;7.822;2023-10-19T12:48:09;1.43;;;1.33;;
2564;SDS011;1292;48.020;7.822;2023-10-19T12:50:36;1.60;;;1.50;;
2564;SDS011;1292;48.020;7.822;2023-10-19T12:53:04;1.60;;;1.50;;
2564;SDS011;1292;48.020;7.822;2023-10-19T12:55:32;2.70;;;1.60;;
2564;SDS011;1292;48.020;7.822;2023-10-19T12:57:59;1.40;;;1.30;;
2564;SDS011;1292;48.020;7.822;2023-10-19T13:00:32;1.73;;;1.63;;
2564;SDS011;1292;48.020;7.822;2023-10-19T13:03:07;1.60;;;1.47;;
2564;SDS011;1292;48.020;7.822;2023-10-19T13:05:34;1.60;;;1.50;;
2564;SDS011;1292;48.020;7.822;2023-10-19T13:08:02;2.27;;;1.37;;
2564;SDS011;1292;48.020;7.822;2023-10-19T13:10:31;1.50;;;1.40;;
2564;SDS011;1292;48.020;7.822;2023-10-19T13:12:59;1.67;;;1.57;;
2564;SDS011;1292;48.020;7.822;2023-10-19T13:15:28;1.47;;;1.37;;
2564;SDS011;1292;48.020;7.822;2023-10-19T13:17:56;4.17;;;2.07;;
2564;SDS011;1292;48.020;7.822;2023-10-19T13:20:26;2.70;;;2.50;;
2564;SDS011;1292;48.020;7.822;2023-10-19T13:22:53;2.53;;;2.20;;
2564;SDS011;1292;48.020;7.822;2023-10-19T13:25:22;2.05;;;1.95;;
2564;SDS011;1292;48.020;7.822;2023-10-19T13:28:04;2.33;;;1.90;;
2564;SDS011;1292;48.020;7.822;2023-10-19T13:30:35;3.07;;;1.60;;
2564;SDS011;1292;48.020;7.822;2023-10-19T13:33:03;3.58;;;2.10;;
2564;SDS011;1292;48.020;7.822;2023-10-19T13:35:32;3.73;;;1.60;;
2564;SDS011;1292;48.020;7.822;2023-10-19T13:37:59;1.90;;;1.80;;
2564;SDS011;1292;48.020;7.822;2023-10-19T13:40:26;1.73;;;1.63;;
2564;SDS011;1292;48.020;7.822;2023-10-19T13:42:55;2.13;;;2.03;;
2564;SDS011;1292;48.020;7.822;2023-10-19T13:45:22;2.33;;;1.83;;
2564;SDS011;1292;48.020;7.822;2023-10-19T13:47:49;4.17;;;2.10;;
2564;SDS011;1292;48.020;7.822;2023-10-19T13:50:19;1.90;;;1.80;;
2564;SDS011;1292;48.020;7.822;2023-10-19T13:52:49;1.67;;;1.57;;
2564;SDS011;1292;48.020;7.822;2023-10-19T13:55:17;2.30;;;1.90;;
2564;SDS011;1292;48.020;7.822;2023-10-19T13:57:45;1.83;;;1.73;;
2564;SDS011;1292;48.020;7.822;2023-10-19T14:00:13;1.73;;;1.30;;
2564;SDS011;1292;48.020;7.822;2023-10-19T14:02:45;6.00;;;1.80;;
2564;SDS011;1292;48.020;7.822;2023-10-19T14:05:12;2.10;;;2.00;;
2564;SDS011;1292;48.020;7.822;2023-10-19T14:07:40;2.42;;;2.20;;
2564;SDS011;1292;48.020;7.822;2023-10-19T14:10:10;1.80;;;1.60;;
2564;SDS011;1292;48.020;7.822;2023-10-19T14:12:38;3.73;;;3.30;;
2564;SDS011;1292;48.020;7.822;2023-10-19T14:15:08;2.17;;;1.98;;
2564;SDS011;1292;48.020;7.822;2023-10-19T14:17:38;6.77;;;6.27;;
2564;SDS011;1292;48.020;7.822;2023-10-19T14:20:06;4.50;;;4.07;;
2564;SDS011;1292;48.020;7.822;2023-10-19T14:22:37;3.10;;;2.40;;
2564;SDS011;1292;48.020;7.822;2023-10-19T14:25:10;2.97;;;2.77;;
2564;SDS011;1292;48.020;7.822;2023-10-19T14:27:41;2.00;;;1.83;;
2564;SDS011;1292;48.020;7.822;2023-10-19T14:30:10;1.93;;;1.83;;
2564;SDS011;1292;48.020;7.822;2023-10-19T14:32:38;3.00;;;2.43;;
2564;SDS011;1292;48.020;7.822;2023-10-19T14:35:07;2.00;;;1.90;;
2564;SDS011;1292;48.020;7.822;2023-10-19T14:37:36;2.57;;;1.93;;
2564;SDS011;1292;48.020;7.822;2023-10-19T14:40:06;3.10;;;2.37;;
2564;SDS011;1292;48.020;7.822;2023-10-19T14:42:36;2.00;;;1.90;;
2564;SDS011;1292;48.020;7.822;2023-10-19T14:45:05;2.47;;;2.20;;
2564;SDS011;1292;48.020;7.822;2023-10-19T14:47:35;1.77;;;1.63;;
2564;SDS011;1292;48.020;7.822;2023-10-19T14:50:06;4.17;;;2.57;;
2564;SDS011;1292;48.020;7.822;2023-10-19T14:52:36;1.87;;;1.77;;
2564;SDS011;1292;48.020;7.822;2023-10-19T14:55:04;2.00;;;1.90;;
2564;SDS011;1292;48.020;7.822;2023-10-19T14:57:32;2.30;;;2.10;;
2564;SDS011;1292;48.020;7.822;2023-10-19T15:00:00;2.10;;;1.90;;
2564;SDS011;1292;48.020;7.822;2023-10-19T15:02:39;2.90;;;2.30;;
2564;SDS011;1292;48.020;7.822;2023-10-19T15:05:07;2.47;;;2.27;;
2564;SDS011;1292;48.020;7.822;2023-10-19T15:07:38;2.50;;;2.30;;
2564;SDS011;1292;48.020;7.822;2023-10-19T15:10:06;7.20;;;2.00;;
2564;SDS011;1292;48.020;7.822;2023-10-19T15:12:35;2.38;;;2.25;;
2564;SDS011;1292;48.020;7.822;2023-10-19T15:15:04;7.77;;;6.97;;
2564;SDS011;1292;48.020;7.822;2023-10-19T15:17:33;8.07;;;5.87;;
2564;SDS011;1292;48.020;7.822;2023-10-19T15:19:59;5.57;;;5.07;;
2564;SDS011;1292;48.020;7.822;2023-10-19T15:22:26;5.63;;;5.15;;
2564;SDS011;1292;48.020;7.822;2023-10-19T15:24:53;5.87;;;5.37;;
2564;SDS011;1292;48.020;7.822;2023-10-19T15:27:20;4.20;;;3.90;;
2564;SDS011;1292;48.020;7.822;2023-10-19T15:29:47;4.30;;;4.00;;
2564;SDS011;1292;48.020;7.822;2023-10-19T15:32:15;5.07;;;4.70;;
2564;SDS011;1292;48.020;7.822;2023-10-19T15:34:42;5.77;;;5.23;;
2564;SDS011;1292;48.020;7.822;2023-10-19T15:37:09;3.20;;;3.00;;
2564;SDS011;1292;48.020;7.822;2023-10-19T15:39:36;3.53;;;3.23;;
2564;SDS011;1292;48.020;7.822;2023-10-19T15:42:03;2.67;;;2.47;;
2564;SDS011;1292;48.020;7.822;2023-10-19T15:44:33;2.33;;;1.70;;
2564;SDS011;1292;48.020;7.822;2023-10-19T15:47:00;2.20;;;2.00;;
2564;SDS011;1292;48.020;7.822;2023-10-19T15:49:30;1.80;;;1.70;;
2564;SDS011;1292;48.020;7.822;2023-10-19T15:51:57;2.20;;;2.07;;
2564;SDS011;1292;48.020;7.822;2023-10-19T15:54:24;2.27;;;2.17;;
2564;SDS011;1292;48.020;7.822;2023-10-19T15:56:52;2.13;;;1.97;;
2564;SDS011;1292;48.020;7.822;2023-10-19T15:59:19;1.70;;;1.60;;
2564;SDS011;1292;48.020;7.822;2023-10-19T16:01:46;2.20;;;2.00;;
2564;SDS011;1292;48.020;7.822;2023-10-19T16:04:13;2.93;;;2.47;;
2564;SDS011;1292;48.020;7.822;2023-10-19T16:06:41;4.50;;;4.10;;
2564;SDS011;1292;48.020;7.822;2023-10-19T16:09:09;4.13;;;3.73;;
2564;SDS011;1292;48.020;7.822;2023-10-19T16:11:36;4.17;;;3.77;;
2564;SDS011;1292;48.020;7.822;2023-10-19T16:14:03;2.43;;;2.23;;
2564;SDS011;1292;48.020;7.822;2023-10-19T16:16:30;2.67;;;2.47;;
2564;SDS011;1292;48.020;7.822;2023-10-19T16:18:57;7.87;;;3.00;;
2564;SDS011;1292;48.020;7.822;2023-10-19T16:21:23;3.87;;;3.47;;
2564;SDS011;1292;48.020;7.822;2023-10-19T16:23:52;5.73;;;4.10;;
2564;SDS011;1292;48.020;7.822;2023-10-19T16:26:19;5.90;;;5.30;;
2564;SDS011;1292;48.020;7.822;2023-10-19T16:28:46;5.67;;;5.27;;
2564;SDS011;1292;48.020;7.822;2023-10-19T16:31:13;5.70;;;5.23;;
2564;SDS011;1292;48.020;7.822;2023-10-19T16:33:41;5.23;;;4.73;;
2564;SDS011;1292;48.020;7.822;2023-10-19T16:36:08;5.53;;;5.00;;
2564;SDS011;1292;48.020;7.822;2023-10-19T16:38:35;4.80;;;3.00;;
2564;SDS011;1292;48.020;7.822;2023-10-19T16:41:03;3.87;;;3.53;;
2564;SDS011;1292;48.020;7.822;2023-10-19T16:43:30;6.17;;;4.10;;
2564;SDS011;1292;48.020;7.822;2023-10-19T16:45:57;4.80;;;3.63;;
2564;SDS011;1292;48.020;7.822;2023-10-19T16:48:24;5.03;;;3.93;;
2564;SDS011;1292;48.020;7.822;2023-10-19T16:50:51;5.23;;;4.20;;
2564;SDS011;1292;48.020;7.822;2023-10-19T16:53:18;7.50;;;6.40;;
2564;SDS011;1292;48.020;7.822;2023-10-19T16:55:45;6.07;;;5.50;;
2564;SDS011;1292;48.020;7.822;2023-10-19T16:58:13;5.73;;;4.90;;
2564;SDS011;1292;48.020;7.822;2023-10-19T17:00:40;6.83;;;4.60;;
2564;SDS011;1292;48.020;7.822;2023-10-19T17:03:09;4.90;;;4.40;;
2564;SDS011;1292;48.020;7.822;2023-10-19T17:05:35;6.15;;;5.53;;
2564;SDS011;1292;48.020;7.822;2023-10-19T17:08:02;9.40;;;8.40;;
2564;SDS011;1292;48.020;7.822;2023-10-19T17:10:30;9.13;;;8.32;;
2564;SDS011;1292;48.020;7.822;2023-10-19T17:12:56;6.50;;;5.20;;
2564;SDS011;1292;48.020;7.822;2023-10-19T17:15:25;5.43;;;4.60;;
2564;SDS011;1292;48.020;7.822;2023-10-19T17:17:52;4.93;;;4.53;;
2564;SDS011;1292;48.020;7.822;2023-10-19T17:20:19;5.47;;;4.97;;
2564;SDS011;1292;48.020;7.822;2023-10-19T17:22:46;4.72;;;4.32;;
2564;SDS011;1292;48.020;7.822;2023-10-19T17:25:12;4.83;;;4.27;;
2564;SDS011;1292;48.020;7.822;2023-10-19T17:27:40;4.47;;;4.00;;
2564;SDS011;1292;48.020;7.822;2023-10-19T17:30:07;6.53;;;5.93;;
2564;SDS011;1292;48.020;7.822;2023-10-19T17:32:39;4.97;;;4.63;;
2564;SDS011;1292;48.020;7.822;2023-10-19T17:35:07;5.73;;;5.00;;
2564;SDS011;1292;48.020;7.822;2023-10-19T17:37:34;4.57;;;4.17;;
2564;SDS011;1292;48.020;7.822;2023-10-19T17:40:02;4.37;;;3.97;;
2564;SDS011;1292;48.020;7.822;2023-10-19T17:42:30;4.20;;;3.70;;
2564;SDS011;1292;48.020;7.822;2023-10-19T17:44:57;5.80;;;5.20;;
2564;SDS011;1292;48.020;7.822;2023-10-19T17:47:23;7.03;;;4.35;;
2564;SDS011;1292;48.020;7.822;2023-10-19T17:49:53;4.70;;;4.10;;
2564;SDS011;1292;48.020;7.822;2023-10-19T17:52:20;9.07;;;8.13;;
2564;SDS011;1292;48.020;7.822;2023-10-19T17:54:47;18.50;;;15.50;;
2564;SDS011;1292;48.020;7.822;2023-10-19T17:57:14;19.37;;;14.77;;
2564;SDS011;1292;48.020;7.822;2023-10-19T17:59:42;19.80;;;12.77;;
2564;SDS011;1292;48.020;7.822;2023-10-19T18:02:09;12.40;;;8.67;;
2564;SDS011;1292;48.020;7.822;2023-10-19T18:04:36;11.33;;;8.43;;
2564;SDS011;1292;48.020;7.822;2023-10-19T18:07:05;10.67;;;7.87;;
2564;SDS011;1292;48.020;7.822;2023-10-19T18:09:32;11.13;;;8.10;;
2564;SDS011;1292;48.020;7.822;2023-10-19T18:11:59;9.97;;;8.43;;
2564;SDS011;1292;48.020;7.822;2023-10-19T18:14:26;10.17;;;8.60;;
2564;SDS011;1292;48.020;7.822;2023-10-19T18:16:53;10.50;;;7.53;;
2564;SDS011;1292;48.020;7.822;2023-10-19T18:19:20;10.00;;;7.93;;
2564;SDS011;1292;48.020;7.822;2023-10-19T18:21:47;9.30;;;8.43;;
2564;SDS011;1292;48.020;7.822;2023-10-19T18:24:19;9.90;;;8.93;;
2564;SDS011;1292;48.020;7.822;2023-10-19T18:26:46;10.93;;;9.47;;
2564;SDS011;1292;48.020;7.822;2023-10-19T18:29:13;9.87;;;8.97;;
2564;SDS011;1292;48.020;7.822;2023-10-19T18:31:39;8.70;;;7.73;;
2564;SDS011;1292;48.020;7.822;2023-10-19T18:34:06;12.47;;;9.13;;
2564;SDS011;1292;48.020;7.822;2023-10-19T18:36:33;8.13;;;7.00;;
2564;SDS011;1292;48.020;7.822;2023-10-19T18:39:00;7.03;;;6.32;;
2564;SDS011;1292;48.020;7.822;2023-10-19T18:41:29;12.27;;;6.13;;
2564;SDS011;1292;48.020;7.822;2023-10-19T18:43:56;4.70;;;4.30;;
2564;SDS011;1292;48.020;7.822;2023-10-19T18:46:24;4.43;;;4.03;;
2564;SDS011;1292;48.020;7.822;2023-10-19T18:48:52;6.87;;;6.13;;
2564;SDS011;1292;48.020;7.822;2023-10-19T18:51:20;7.53;;;6.83;;
2564;SDS011;1292;48.020;7.822;2023-10-19T18:53:47;6.67;;;6.03;;
2564;SDS011;1292;48.020;7.822;2023-10-19T18:56:13;6.35;;;5.85;;
2564;SDS011;1292;48.020;7.822;2023-10-19T18:58:42;6.30;;;4.97;;
2564;SDS011;1292;48.020;7.822;2023-10-19T19:01:08;8.60;;;5.07;;
2564;SDS011;1292;48.020;7.822;2023-10-19T19:03:35;6.20;;;5.60;;
2564;SDS011;1292;48.020;7.822;2023-10-19T19:06:03;6.83;;;6.20;;
2564;SDS011;1292;48.020;7.822;2023-10-19T19:08:32;6.97;;;5.60;;
2564;SDS011;1292;48.020;7.822;2023-10-19T19:11:07;7.47;;;6.77;;
2564;SDS011;1292;48.020;7.822;2023-10-19T19:13:35;6.17;;;5.67;;
2564;SDS011;1292;48.020;7.822;2023-10-19T19:16:03;8.23;;;5.57;;
2564;SDS011;1292;48.020;7.822;2023-10-19T19:18:31;6.53;;;5.23;;
2564;SDS011;1292;48.020;7.822;2023-10-19T19:20:58;6.80;;;5.50;;
2564;SDS011;1292;48.020;7.822;2023-10-19T19:23:28;6.83;;;5.70;;
2564;SDS011;1292;48.020;7.822;2023-10-19T19:25:55;7.77;;;6.90;;
2564;SDS011;1292;48.020;7.822;2023-10-19T19:28:22;7.53;;;6.83;;
2564;SDS011;1292;48.020;7.822;2023-10-19T19:30:49;7.30;;;6.60;;
2564;SDS011;1292;48.020;7.822;2023-10-19T19:33:18;7.30;;;6.67;;
2564;SDS011;1292;48.020;7.822;2023-10-19T19:35:45;6.95;;;6.35;;
2564;SDS011;1292;48.020;7.822;2023-10-19T19:38:11;7.17;;;6.57;;
2564;SDS011;1292;48.020;7.822;2023-10-19T19:40:38;6.83;;;6.07;;
2564;SDS011;1292;48.020;7.822;2023-10-19T19:43:06;5.70;;;5.20;;
2564;SDS011;1292;48.020;7.822;2023-10-19T19:45:33;6.90;;;6.30;;
2564;SDS011;1292;48.020;7.822;2023-10-19T19:48:02;9.63;;;7.37;;
2564;SDS011;1292;48.020;7.822;2023-10-19T19:50:31;9.00;;;7.20;;
2564;SDS011;1292;48.020;7.822;2023-10-19T19:52:58;7.97;;;6.90;;
2564;SDS011;1292;48.020;7.822;2023-10-19T19:55:25;11.50;;;8.03;;
2564;SDS011;1292;48.020;7.822;2023-10-19T19:57:53;9.40;;;8.37;;
2564;SDS011;1292;48.020;7.822;2023-10-19T20:00:19;12.48;;;8.90;;
2564;SDS011;1292;48.020;7.822;2023-10-19T20:02:47;8.50;;;7.63;;
2564;SDS011;1292;48.020;7.822;2023-10-19T20:05:15;7.27;;;6.57;;
2564;SDS011;1292;48.020;7.822;2023-10-19T20:07:44;7.30;;;6.60;;
2564;SDS011;1292;48.020;7.822;2023-10-19T20:10:12;9.17;;;7.50;;
2564;SDS011;1292;48.020;7.822;2023-10-19T20:12:41;8.00;;;6.83;;
2564;SDS011;1292;48.020;7.822;2023-10-19T20:15:09;8.93;;;8.07;;
2564;SDS011;1292;48.020;7.822;2023-10-19T20:17:39;10.10;;;8.20;;
2564;SDS011;1292;48.020;7.822;2023-10-19T20:20:07;8.53;;;7.70;;
2564;SDS011;1292;48.020;7.822;2023-10-19T20:22:36;11.60;;;8.07;;
2564;SDS011;1292;48.020;7.822;2023-10-19T20:25:04;11.53;;;8.27;;
2564;SDS011;1292;48.020;7.822;2023-10-19T20:27:32;8.57;;;7.88;;
2564;SDS011;1292;48.020;7.822;2023-10-19T20:29:59;8.03;;;7.33;;
2564;SDS011;1292;48.020;7.822;2023-10-19T20:32:27;9.17;;;7.13;;
2564;SDS011;1292;48.020;7.822;2023-10-19T20:34:54;7.77;;;7.00;;
2564;SDS011;1292;48.020;7.822;2023-10-19T20:37:21;8.00;;;7.30;;
2564;SDS011;1292;48.020;7.822;2023-10-19T20:39:47;8.70;;;7.80;;
2564;SDS011;1292;48.020;7.822;2023-10-19T20:42:15;9.07;;;8.07;;
2564;SDS011;1292;48.020;7.822;2023-10-19T20:44:42;7.57;;;6.87;;
2564;SDS011;1292;48.020;7.822;2023-10-19T20:47:09;9.50;;;8.60;;
2564;SDS011;1292;48.020;7.822;2023-10-19T20:49:36;8.17;;;7.50;;
2564;SDS011;1292;48.020;7.822;2023-10-19T20:52:03;9.20;;;8.30;;
2564;SDS011;1292;48.020;7.822;2023-10-19T20:54:33;8.20;;;7.40;;
2564;SDS011;1292;48.020;7.822;2023-10-19T20:57:00;9.20;;;6.70;;
2564;SDS011;1292;48.020;7.822;2023-10-19T20:59:29;8.27;;;7.57;;
2564;SDS011;1292;48.020;7.822;2023-10-19T21:01:56;10.07;;;9.07;;
2564;SDS011;1292;48.020;7.822;2023-10-19T21:04:23;9.17;;;8.37;;